Cool Spring, North Carolina
Current Conditions -  °F | °C
As of 5:15 PM on Thursday 18 Dec 2014 (Local Time) from KRUQ Reporting Station
Overcast Overcast  
Wind Chill: 47°   Ceiling: 7000
Heat Index: 47°   Visibility: 10mi
Dew Point: 25°   Wind: 0mph
Humidity: 41%   Direction: NA
Pressure: 30.09"   Gusts: NA
Location:  35.7427°N, 80.712°W
Report Text: KRUQ 182215Z AUTO 00000KT 10SM OVC070 09/M04 A3009 RMK AO2 T00861041
Loading
Personal Weather Stations






























Interactive Weather Map New forecast layout! Learn more

10-Day Weather Forecast

Advertisements
Track Severe Weather on mobile